Akunia, Virginia
Current Conditions -  °F | °C
As of 6:15 AM on Wednesday 26 Nov 2014 (Local Time) from KFVX Reporting Station
Moderate Rain Moderate Rain  
Wind Chill: 39°   Ceiling: 1300
Heat Index: 45°   Visibility: 7mi
Dew Point: 45°   Wind: 13mph
Humidity: 100%   Direction: 30°NNE
Pressure: 29.98"   Gusts: 21mph
Location:  37.6681°N, 78.4131°W
Report Text: KFVX 261115Z AUTO 03011G18KT 7SM RA SCT009 BKN013 OVC022 07/07 A2998 RMK AO2 P0003 T00720072
Loading
Personal Weather Stations






























Interactive Weather Map New forecast layout! Learn more

10-Day Weather Forecast

Advertisements
Track Severe Weather on mobile